createdAt,value
2023-03-20T00:01:16.076Z,57.38
2023-03-20T00:06:16.264Z,56.73
2023-03-20T00:11:22.824Z,56.84
2023-03-20T00:16:19.963Z,57.14
2023-03-20T00:21:18.360Z,56.38
2023-03-20T00:26:17.722Z,56.34
2023-03-20T00:31:19.244Z,55.50
2023-03-20T00:36:16.198Z,55.69
2023-03-20T00:41:20.248Z,55.76
2023-03-20T00:46:16.982Z,55.81
2023-03-20T00:51:13.781Z,55.59
2023-03-20T00:56:23.830Z,55.98
2023-03-20T01:01:21.194Z,56.14
2023-03-20T01:06:18.388Z,55.94
2023-03-20T01:11:17.749Z,55.93
2023-03-20T01:16:19.421Z,55.52
2023-03-20T01:21:17.783Z,55.71
2023-03-20T01:26:21.277Z,55.89
2023-03-20T01:31:18.128Z,55.92
2023-03-20T01:36:16.379Z,55.84
2023-03-20T01:41:16.054Z,55.67
2023-03-20T01:46:19.008Z,55.71
2023-03-20T01:51:19.165Z,55.90
2023-03-20T01:56:17.588Z,55.48
2023-03-20T02:01:18.565Z,55.58
2023-03-20T02:06:16.957Z,55.72
2023-03-20T02:11:31.760Z,55.69
2023-03-20T02:16:28.487Z,56.12
2023-03-20T02:21:51.067Z,56.72
2023-03-20T02:26:54.486Z,56.71
2023-03-20T02:32:12.432Z,56.63
2023-03-20T02:37:39.421Z,56.52
2023-03-20T02:42:40.484Z,56.58
2023-03-20T02:47:41.335Z,56.36
2023-03-20T02:52:50.203Z,56.82
2023-03-20T02:57:54.769Z,56.60
2023-03-20T03:02:53.425Z,56.51
2023-03-20T03:07:56.838Z,56.33
2023-03-20T03:12:54.716Z,56.02
2023-03-20T03:17:51.944Z,55.63
2023-03-20T03:22:50.565Z,55.79
2023-03-20T03:27:50.779Z,56.34
2023-03-20T03:32:50.115Z,56.08
2023-03-20T03:37:52.269Z,56.01
2023-03-20T03:42:53.853Z,55.94
2023-03-20T03:47:52.337Z,55.92
2023-03-20T03:52:50.363Z,55.93
2023-03-20T03:57:50.057Z,55.98
2023-03-20T04:02:51.685Z,56.01
2023-03-20T04:07:52.801Z,55.87
2023-03-20T04:12:49.851Z,55.18
2023-03-20T04:17:49.452Z,54.53
2023-03-20T04:22:48.101Z,54.97
2023-03-20T04:27:46.280Z,55.34
2023-03-20T04:32:52.880Z,56.28
2023-03-20T04:38:02.979Z,57.02
2023-03-20T04:43:02.746Z,56.87
2023-03-20T04:48:00.338Z,57.09
2023-03-20T04:52:58.064Z,57.36
2023-03-20T04:57:56.308Z,57.72
2023-03-20T05:02:54.195Z,57.79
2023-03-20T05:07:51.481Z,58.71
2023-03-20T05:12:58.175Z,58.93
2023-03-20T05:18:06.929Z,58.83
2023-03-20T05:23:22.419Z,58.25
2023-03-20T05:28:42.947Z,57.82
2023-03-20T05:34:05.259Z,57.94
2023-03-20T05:39:23.667Z,57.23
2023-03-20T05:44:41.342Z,56.95
2023-03-20T05:49:56.397Z,57.54
2023-03-20T05:55:03.110Z,57.27
2023-03-20T06:00:19.636Z,57.61
2023-03-20T06:05:16.729Z,58.23
2023-03-20T06:10:20.127Z,57.81
2023-03-20T06:15:19.249Z,57.67
2023-03-20T06:20:23.728Z,57.22
2023-03-20T06:25:21.023Z,57.35
2023-03-20T06:30:19.596Z,57.85
2023-03-20T06:35:18.059Z,57.52
2023-03-20T06:40:17.618Z,57.24
2023-03-20T06:45:14.696Z,57.06
2023-03-20T06:50:27.961Z,59.14
2023-03-20T06:55:24.837Z,60.44
2023-03-20T07:00:22.850Z,62.30
2023-03-20T07:05:22.343Z,62.86
2023-03-20T07:10:37.803Z,62.16
2023-03-20T08:11:55.367Z,56.29
2023-03-20T08:23:43.013Z,57.80
2023-03-20T08:29:09.267Z,57.58
2023-03-20T09:43:57.607Z,52.96
2023-03-20T09:48:58.496Z,52.47
2023-03-20T09:53:59.226Z,52.38
2023-03-20T09:59:02.197Z,52.34
2023-03-20T10:04:01.163Z,52.31
2023-03-20T10:08:58.472Z,52.49
2023-03-20T10:14:07.229Z,52.08
2023-03-20T10:19:13.776Z,50.57
2023-03-20T10:24:18.353Z,48.35
2023-03-20T10:29:21.418Z,48.91
2023-03-20T10:34:28.122Z,50.42
2023-03-20T10:39:35.629Z,50.88
2023-03-20T10:44:34.997Z,50.91
2023-03-20T10:49:36.847Z,50.98
2023-03-20T10:54:36.414Z,50.60
2023-03-20T10:59:36.860Z,50.19
2023-03-20T11:04:34.633Z,49.54
2023-03-20T11:09:49.561Z,49.54
2023-03-20T11:14:47.648Z,49.07
2023-03-20T11:19:45.259Z,48.52
2023-03-20T11:24:43.155Z,46.69
2023-03-20T11:29:41.487Z,46.86
2023-03-20T11:35:11.589Z,46.58
2023-03-20T11:40:14.781Z,46.76
2023-03-20T11:45:16.167Z,45.76
2023-03-20T11:50:51.792Z,45.80
2023-03-20T11:56:12.695Z,44.48
2023-03-20T12:01:13.114Z,45.81
2023-03-20T12:06:18.795Z,45.84
2023-03-20T12:11:25.076Z,46.38
2023-03-20T12:16:24.541Z,46.46
2023-03-20T12:21:23.206Z,46.17
2023-03-20T12:26:25.486Z,46.35
2023-03-20T12:31:25.528Z,46.12
2023-03-20T12:36:25.765Z,46.29
2023-03-20T12:41:25.218Z,45.73
2023-03-20T12:46:26.175Z,46.08
2023-03-20T12:51:27.739Z,46.46
2023-03-20T12:56:31.795Z,46.08
2023-03-20T13:01:30.792Z,45.52
2023-03-20T13:06:36.143Z,46.33
2023-03-20T13:11:36.612Z,45.96
2023-03-20T13:16:40.592Z,45.13
2023-03-20T13:21:40.065Z,44.58
2023-03-20T13:26:40.052Z,44.81
2023-03-20T13:31:42.791Z,45.20
2023-03-20T13:36:45.387Z,44.57
2023-03-20T13:41:47.533Z,44.12
2023-03-20T13:46:46.869Z,44.49
2023-03-20T13:51:48.141Z,42.52
2023-03-20T13:56:52.396Z,43.94
2023-03-20T14:01:55.409Z,43.98
2023-03-20T14:06:53.851Z,44.02
2023-03-20T14:11:53.741Z,43.91
2023-03-20T14:17:00.326Z,44.34
2023-03-20T14:22:06.665Z,44.24
2023-03-20T14:27:05.776Z,45.14
2023-03-20T14:32:07.170Z,45.04
2023-03-20T14:37:05.049Z,44.89
2023-03-20T14:42:23.705Z,44.64
2023-03-20T14:47:37.022Z,44.57
2023-03-20T14:52:44.004Z,45.00
2023-03-20T14:57:56.496Z,45.23
2023-03-20T15:03:04.876Z,45.17
2023-03-20T15:08:05.115Z,45.41
2023-03-20T15:13:03.480Z,45.46
2023-03-20T15:18:04.987Z,45.40
2023-03-20T15:23:02.600Z,45.18
2023-03-20T15:27:59.701Z,45.29
2023-03-20T15:32:57.531Z,44.97
2023-03-20T15:37:56.894Z,45.07
2023-03-20T15:42:54.284Z,44.88
2023-03-20T15:48:00.508Z,44.92
2023-03-20T15:52:57.470Z,45.21
2023-03-20T15:57:56.093Z,44.86
2023-03-20T16:02:53.795Z,44.77
2023-03-20T16:07:57.464Z,44.90
2023-03-20T16:12:56.024Z,45.00
2023-03-20T16:17:54.021Z,45.22
2023-03-20T16:22:56.052Z,45.13
2023-03-20T16:27:54.514Z,45.20
2023-03-20T16:32:55.028Z,45.41
2023-03-20T16:37:56.633Z,45.31
2023-03-20T16:42:55.888Z,45.14
2023-03-20T16:48:12.669Z,44.56
2023-03-20T16:53:11.447Z,45.12
2023-03-20T16:58:08.168Z,45.20
2023-03-20T17:03:12.945Z,45.35
2023-03-20T17:08:13.521Z,45.53
2023-03-20T17:13:10.348Z,45.36
2023-03-20T17:18:10.590Z,45.58
2023-03-20T17:23:11.844Z,45.66
2023-03-20T17:28:11.341Z,45.67
2023-03-20T17:33:11.457Z,45.78
2023-03-20T17:38:10.477Z,45.60
2023-03-20T17:43:10.213Z,45.66
2023-03-20T17:48:17.232Z,45.61
2023-03-20T17:53:16.299Z,45.72
2023-03-20T17:58:52.383Z,45.84
2023-03-20T18:03:51.372Z,45.82
2023-03-20T18:08:48.092Z,45.92
2023-03-20T18:13:45.541Z,45.96
2023-03-20T18:18:42.703Z,45.96
2023-03-20T18:23:39.388Z,45.78
2023-03-20T18:28:35.961Z,45.71
2023-03-20T18:33:33.301Z,45.73
2023-03-20T18:38:32.835Z,45.95
2023-03-20T18:43:31.852Z,46.28
2023-03-20T18:48:30.060Z,46.29
2023-03-20T18:53:27.403Z,46.21
2023-03-20T18:58:24.656Z,46.60
2023-03-20T19:03:24.162Z,46.40
2023-03-20T19:08:21.496Z,46.10
2023-03-20T19:13:19.786Z,46.27
2023-03-20T19:18:17.458Z,46.35
2023-03-20T19:23:14.780Z,46.06
2023-03-20T19:28:21.527Z,45.88
2023-03-20T19:33:19.739Z,45.87
2023-03-20T19:38:17.294Z,45.91
2023-03-20T19:43:15.494Z,45.74
2023-03-20T19:48:15.390Z,45.60
2023-03-20T19:53:14.053Z,45.82
2023-03-20T19:58:18.474Z,45.64
2023-03-20T20:03:18.640Z,45.91
2023-03-20T20:08:28.353Z,45.86
2023-03-20T20:13:34.194Z,45.42
2023-03-20T20:18:30.916Z,45.49
2023-03-20T20:23:28.454Z,47.35
2023-03-20T20:28:25.444Z,46.79
2023-03-20T20:33:28.148Z,46.01
2023-03-20T20:38:45.075Z,45.45
2023-03-20T20:44:13.997Z,45.61
2023-03-20T20:49:07.056Z,46.68
2023-03-20T20:54:13.443Z,46.92
2023-03-20T20:59:10.893Z,46.48
2023-03-20T21:04:07.694Z,46.35
2023-03-20T21:09:04.409Z,47.36
2023-03-20T21:14:01.171Z,48.08
2023-03-20T21:18:58.638Z,51.24
2023-03-20T21:23:55.489Z,53.04
2023-03-20T21:28:53.442Z,53.96
2023-03-20T21:33:53.785Z,55.29
2023-03-20T21:39:07.515Z,55.08
2023-03-20T21:44:07.349Z,54.84
2023-03-20T21:49:54.533Z,55.11
2023-03-20T21:55:00.583Z,57.11
2023-03-20T22:00:19.184Z,57.86
2023-03-20T22:11:06.287Z,57.35
2023-03-20T22:16:04.711Z,56.76
2023-03-20T22:21:33.802Z,55.98
2023-03-20T22:32:02.464Z,54.82
2023-03-20T22:42:32.848Z,54.22
2023-03-20T22:47:17.698Z,55.91
2023-03-20T22:52:27.106Z,55.09
2023-03-20T22:57:40.241Z,56.23
2023-03-20T23:02:41.928Z,57.71
2023-03-20T23:07:38.634Z,57.12
2023-03-20T23:12:38.028Z,57.01
2023-03-20T23:17:34.729Z,58.41
2023-03-20T23:22:31.378Z,57.88
2023-03-20T23:27:29.934Z,57.64
2023-03-20T23:32:28.886Z,59.07
2023-03-20T23:37:25.571Z,60.12
2023-03-20T23:42:30.312Z,60.32
2023-03-20T23:47:38.428Z,60.29
2023-03-20T23:52:45.968Z,60.61
2023-03-20T23:57:46.874Z,58.27
